Terminal Aerodrome Forecast
Issued by NWS Atlanta, GA

Home | Current Version | Previous Version | Text Only | Print | Product List | Glossary On
Versions: 1 2 3 4 5 6 7 8 9 10 11 12 13 14 15 16 17 18 19 20 21 22
000
FTUS42 KFFC 301549 AAB
TAFCSG
TAF AMD
KCSG 301549Z 3016/3112 06006KT P6SM FEW040
     FM301700 36007KT P6SM VCSH BKN040
      TEMPO 3019/3022 VRB10G20KT 6SM -TSRA BKN040CB
     FM310100 VRB04KT P6SM SCT060 SCT250=

USA.gov is the U.S. government's official web portal to all federal, state and local government web resources and services.